Time;durP1;ratioP1;P1;durP2;ratioP2;P2;SDS_P1;SDS_P2;PMS_P1;PMS_P2;Temp;Humidity;BMP_temperature;BMP_pressure;BME280_temperature;BME280_humidity;BME280_pressure;Samples;Min_cycle;Max_cycle;Signal;HPM_P1;HPM_P2
2020/12/12 00:02:09;;;;;;;34.08;22.77;;;5.50;96.60;;;;;;5048608;28;20029;-39
2020/12/12 00:04:35;;;;;;;32.13;21.30;;;5.50;96.60;;;;;;5049657;28;20033;-40
2020/12/12 00:07:00;;;;;;;33.40;23.55;;;5.50;96.60;;;;;;5049363;28;20090;-41
2020/12/12 00:09:26;;;;;;;34.58;23.00;;;5.50;96.50;;;;;;5048515;28;20451;-40
2020/12/12 00:11:51;;;;;;;32.13;23.08;;;5.50;96.50;;;;;;5049195;28;20075;-39
2020/12/12 00:14:17;;;;;;;37.33;23.05;;;5.50;96.50;;;;;;5049037;28;20029;-40
2020/12/12 00:16:42;;;;;;;33.67;22.90;;;5.50;96.50;;;;;;5048790;28;20037;-39
2020/12/12 00:19:09;;;;;;;36.17;23.13;;;5.50;96.50;;;;;;5049084;28;20522;-39
2020/12/12 00:21:34;;;;;;;36.58;23.92;;;5.50;96.50;;;;;;5049319;28;20029;-47
2020/12/12 00:24:00;;;;;;;30.75;21.27;;;5.50;96.60;;;;;;5048749;28;20090;-38
2020/12/12 00:26:25;;;;;;;32.10;21.63;;;5.50;96.60;;;;;;5048103;28;20037;-38
2020/12/12 00:28:52;;;;;;;30.08;21.70;;;5.50;96.60;;;;;;5046881;28;20029;-40
2020/12/12 00:31:18;;;;;;;36.15;23.08;;;5.50;96.60;;;;;;5047705;28;20547;-38
2020/12/12 00:33:44;;;;;;;36.63;23.73;;;5.50;96.60;;;;;;5048913;28;20071;-38
2020/12/12 00:36:10;;;;;;;35.80;24.10;;;5.50;96.60;;;;;;5048226;28;20029;-39
2020/12/12 00:38:35;;;;;;;34.45;23.15;;;5.50;96.60;;;;;;5048218;28;20048;-39
2020/12/12 00:41:02;;;;;;;32.03;22.50;;;5.50;96.60;;;;;;5049056;28;20017;-40
2020/12/12 00:43:27;;;;;;;38.85;24.98;;;5.50;96.60;;;;;;5048166;28;20112;-39
2020/12/12 00:45:53;;;;;;;36.45;24.35;;;5.50;96.60;;;;;;5048209;28;20108;-38
2020/12/12 00:48:18;;;;;;;36.92;23.98;;;5.50;96.60;;;;;;5048300;28;20021;-39
2020/12/12 00:50:45;;;;;;;35.80;24.42;;;5.50;96.70;;;;;;5048965;28;20029;-39
2020/12/12 00:53:11;;;;;;;35.83;23.88;;;5.50;96.60;;;;;;5047494;28;20063;-40
2020/12/12 00:55:37;;;;;;;31.80;22.08;;;5.50;96.60;;;;;;5048623;28;20033;-40
2020/12/12 00:58:02;;;;;;;35.67;24.20;;;5.50;96.70;;;;;;5048528;28;20381;-37
2020/12/12 01:00:32;;;;;;;36.50;24.85;;;5.50;96.70;;;;;;5047485;28;20380;-38
2020/12/12 01:02:59;;;;;;;36.20;25.10;;;5.50;96.70;;;;;;5048307;28;20100;-42
2020/12/12 01:05:25;;;;;;;35.75;24.00;;;5.50;96.70;;;;;;5047962;28;20044;-38
2020/12/12 01:07:50;;;;;;;35.63;23.52;;;5.50;96.70;;;;;;5048199;28;20021;-41
2020/12/12 01:10:16;;;;;;;38.30;24.83;;;5.60;96.70;;;;;;5047444;28;20028;-38
2020/12/12 01:12:41;;;;;;;33.35;22.80;;;5.60;96.70;;;;;;5047764;28;20374;-38
2020/12/12 01:15:06;;;;;;;36.15;24.15;;;5.50;96.60;;;;;;5047731;28;20083;-41
2020/12/12 01:17:33;;;;;;;35.05;23.85;;;5.60;96.70;;;;;;5047663;28;20376;-39
2020/12/12 01:19:59;;;;;;;38.33;24.40;;;5.60;96.70;;;;;;5047809;28;20372;-38
2020/12/12 01:22:24;;;;;;;36.58;24.10;;;5.60;96.70;;;;;;5047313;28;20024;-42
2020/12/12 01:24:50;;;;;;;34.50;22.92;;;5.60;96.70;;;;;;5048253;28;20120;-39
2020/12/12 01:27:17;;;;;;;35.95;23.95;;;5.60;96.70;;;;;;5046828;28;20044;-41
2020/12/12 01:29:43;;;;;;;36.53;24.05;;;5.60;96.70;;;;;;5047673;28;20102;-40
2020/12/12 01:32:08;;;;;;;36.42;23.55;;;5.60;96.70;;;;;;5047081;28;20040;-38
2020/12/12 01:34:34;;;;;;;35.95;24.02;;;5.60;96.70;;;;;;5047384;28;20021;-38
2020/12/12 01:36:59;;;;;;;35.65;23.80;;;5.60;96.70;;;;;;5047724;28;20076;-39
2020/12/12 01:39:25;;;;;;;36.00;24.58;;;5.60;96.70;;;;;;5047106;28;20021;-39
2020/12/12 01:41:54;;;;;;;34.03;23.52;;;5.60;96.70;;;;;;5047332;28;20464;-39
2020/12/12 01:44:20;;;;;;;32.63;22.13;;;5.60;96.70;;;;;;5047310;28;20021;-39
2020/12/12 01:46:48;;;;;;;36.72;23.98;;;5.60;96.70;;;;;;5047432;28;20067;-39
2020/12/12 01:49:14;;;;;;;35.40;23.75;;;5.60;97.00;;;;;;5046759;28;20075;-41
2020/12/12 01:51:40;;;;;;;37.97;23.98;;;5.70;96.70;;;;;;5047544;28;20063;-42
2020/12/12 01:54:08;;;;;;;36.53;24.17;;;5.70;96.70;;;;;;5047072;28;20033;-39
2020/12/12 01:56:33;;;;;;;38.08;24.33;;;5.70;96.70;;;;;;5046946;28;20065;-39
2020/12/12 01:58:59;;;;;;;36.78;23.40;;;5.70;96.80;;;;;;5047478;28;20064;-41
2020/12/12 02:01:27;;;;;;;39.83;24.48;;;5.70;96.70;;;;;;5046791;28;20066;-42
2020/12/12 02:03:55;;;;;;;36.95;24.85;;;5.70;96.70;;;;;;5046880;28;20484;-38
2020/12/12 02:06:21;;;;;;;36.00;24.65;;;5.70;96.70;;;;;;5046998;28;20040;-39
2020/12/12 02:08:51;;;;;;;38.10;24.05;;;5.70;96.70;;;;;;5046707;28;20457;-41
2020/12/12 02:11:17;;;;;;;37.22;24.55;;;5.70;96.70;;;;;;5046239;28;20052;-37
2020/12/12 02:13:46;;;;;;;34.58;22.88;;;5.70;96.80;;;;;;5047000;28;20036;-37
2020/12/12 02:16:13;;;;;;;35.85;23.50;;;5.70;96.80;;;;;;5045974;28;20572;-37
2020/12/12 02:18:39;;;;;;;39.08;25.35;;;5.70;96.80;;;;;;5047241;28;20029;-38
2020/12/12 02:21:06;;;;;;;34.83;24.00;;;5.70;96.80;;;;;;5047144;28;20028;-39
2020/12/12 02:23:33;;;;;;;38.95;25.40;;;5.70;96.80;;;;;;5046184;28;20029;-40
2020/12/12 02:25:58;;;;;;;35.50;24.02;;;5.80;96.80;;;;;;5046747;28;20032;-41
2020/12/12 02:28:28;;;;;;;37.13;25.92;;;5.80;96.80;;;;;;5046600;28;20021;-41
2020/12/12 02:30:54;;;;;;;39.03;25.13;;;5.80;96.80;;;;;;5046579;28;20041;-39
2020/12/12 02:33:19;;;;;;;39.40;25.33;;;5.80;96.80;;;;;;5046054;28;20155;-43
2020/12/12 02:35:45;;;;;;;36.38;24.65;;;5.80;96.80;;;;;;5047048;28;20032;-41
2020/12/12 02:38:11;;;;;;;39.53;25.42;;;5.80;96.80;;;;;;5045766;28;20452;-40
2020/12/12 02:40:36;;;;;;;34.85;24.73;;;5.80;96.80;;;;;;5047129;28;20025;-43
2020/12/12 02:43:02;;;;;;;35.78;24.13;;;5.80;96.70;;;;;;5046696;28;20594;-39
2020/12/12 02:45:27;;;;;;;33.88;23.48;;;5.80;96.70;;;;;;5045782;28;20171;-39
2020/12/12 02:47:53;;;;;;;32.65;22.63;;;5.80;96.70;;;;;;5046837;28;20029;-40
2020/12/12 02:50:26;;;;;;;32.08;22.50;;;5.80;96.70;;;;;;5046364;28;20096;-39
2020/12/12 02:52:52;;;;;;;36.10;23.05;;;5.80;96.70;;;;;;5046120;28;20060;-39
2020/12/12 02:55:18;;;;;;;34.03;23.60;;;5.80;96.70;;;;;;5046177;28;20017;-42
2020/12/12 02:57:44;;;;;;;34.10;22.42;;;5.80;96.70;;;;;;5046964;28;20047;-39
2020/12/12 03:00:13;;;;;;;31.05;21.80;;;5.80;96.70;;;;;;5045805;28;20028;-40
2020/12/12 03:02:38;;;;;;;34.88;23.92;;;5.90;96.70;;;;;;5046732;28;20104;-41
2020/12/12 03:05:05;;;;;;;38.15;24.98;;;5.80;96.70;;;;;;5046387;28;20037;-39
2020/12/12 03:07:31;;;;;;;36.78;24.52;;;5.80;96.70;;;;;;5046169;28;20419;-39
2020/12/12 03:09:57;;;;;;;31.98;22.45;;;5.80;96.70;;;;;;5046548;28;20551;-38
2020/12/12 03:12:22;;;;;;;33.20;22.50;;;5.90;96.70;;;;;;5046014;28;20056;-39
2020/12/12 03:14:48;;;;;;;31.95;22.48;;;5.80;96.70;;;;;;5046353;28;20025;-39
2020/12/12 03:17:13;;;;;;;31.50;21.30;;;5.90;97.00;;;;;;5045865;28;20033;-40
2020/12/12 03:19:39;;;;;;;36.22;24.70;;;5.90;96.70;;;;;;5046053;28;20025;-41
2020/12/12 03:22:06;;;;;;;28.70;20.38;;;5.90;96.70;;;;;;5046296;28;20535;-43
2020/12/12 03:24:32;;;;;;;35.70;23.77;;;5.90;96.70;;;;;;5047896;28;20028;-40
2020/12/12 03:26:58;;;;;;;35.47;24.15;;;5.90;96.70;;;;;;5049972;28;20032;-38
2020/12/12 03:29:24;;;;;;;33.42;22.33;;;5.90;96.70;;;;;;5049743;28;20029;-41
2020/12/12 03:31:49;;;;;;;33.17;22.23;;;5.90;96.70;;;;;;5050261;28;20024;-40
2020/12/12 03:34:15;;;;;;;38.33;24.38;;;5.90;96.70;;;;;;5049081;28;20025;-42
2020/12/12 03:36:41;;;;;;;34.67;22.60;;;5.90;96.70;;;;;;5050042;28;20358;-38
2020/12/12 03:39:06;;;;;;;38.25;25.05;;;5.90;96.70;;;;;;5049999;28;20025;-38
2020/12/12 03:41:32;;;;;;;36.38;24.45;;;5.90;96.70;;;;;;5049241;28;20112;-40
2020/12/12 03:43:58;;;;;;;34.72;23.65;;;5.90;96.70;;;;;;5049847;28;20032;-41
2020/12/12 03:46:23;;;;;;;34.50;23.35;;;5.90;96.70;;;;;;5049462;28;20036;-38
2020/12/12 03:48:49;;;;;;;33.25;23.25;;;5.90;96.80;;;;;;5049491;28;20025;-39
2020/12/12 03:51:14;;;;;;;37.72;23.58;;;5.90;96.80;;;;;;5048991;28;20033;-40
2020/12/12 03:53:40;;;;;;;37.33;25.05;;;5.90;96.70;;;;;;5049963;28;20492;-41
2020/12/12 03:56:05;;;;;;;37.65;23.85;;;6.00;96.80;;;;;;5049082;28;20033;-39
2020/12/12 03:58:31;;;;;;;37.13;25.10;;;6.00;96.80;;;;;;5049791;28;20025;-38
2020/12/12 04:00:56;;;;;;;37.45;25.23;;;5.90;96.70;;;;;;5049637;28;20036;-40
2020/12/12 04:03:22;;;;;;;38.00;24.50;;;5.90;96.70;;;;;;5048522;28;20033;-38
2020/12/12 04:05:48;;;;;;;40.78;25.83;;;5.90;96.80;;;;;;5049749;28;20028;-39
2020/12/12 04:08:14;;;;;;;36.47;25.10;;;6.00;96.80;;;;;;5049026;28;20479;-39
2020/12/12 04:10:39;;;;;;;33.83;24.05;;;5.90;96.80;;;;;;5049085;28;20458;-40
2020/12/12 04:13:05;;;;;;;32.13;23.98;;;5.90;96.80;;;;;;5049384;28;20635;-40
2020/12/12 04:15:31;;;;;;;34.38;22.70;;;5.90;96.80;;;;;;5048866;28;20546;-39
2020/12/12 04:17:56;;;;;;;34.08;23.60;;;5.90;96.80;;;;;;5049265;28;20135;-40
2020/12/12 04:20:22;;;;;;;35.42;23.35;;;5.90;96.80;;;;;;5048920;28;20017;-38
2020/12/12 04:22:48;;;;;;;31.02;22.23;;;6.00;96.80;;;;;;5049051;28;20035;-39
2020/12/12 04:25:13;;;;;;;32.60;23.90;;;6.00;96.80;;;;;;5048670;28;20392;-38
2020/12/12 04:27:38;;;;;;;33.03;23.50;;;6.00;96.80;;;;;;5049597;28;20029;-39
2020/12/12 04:30:04;;;;;;;31.55;22.38;;;6.00;96.80;;;;;;5048621;28;20565;-41
2020/12/12 04:32:30;;;;;;;30.20;21.75;;;6.00;96.80;;;;;;5048385;28;20037;-41
2020/12/12 04:34:56;;;;;;;31.02;22.63;;;6.00;96.80;;;;;;5049272;28;20029;-37
2020/12/12 04:37:21;;;;;;;34.97;22.33;;;6.00;96.80;;;;;;5047513;28;20456;-38
2020/12/12 04:39:47;;;;;;;31.83;23.52;;;6.00;96.80;;;;;;5049067;28;20052;-38
2020/12/12 04:42:15;;;;;;;34.58;24.33;;;6.00;96.80;;;;;;5048585;28;20062;-38
2020/12/12 04:44:41;;;;;;;37.38;24.30;;;6.00;96.80;;;;;;5048360;28;20389;-40
2020/12/12 04:47:07;;;;;;;36.47;24.90;;;6.00;96.80;;;;;;5048398;28;20132;-41
2020/12/12 04:49:34;;;;;;;34.90;24.42;;;6.00;96.80;;;;;;5049004;28;20395;-40
2020/12/12 04:52:03;;;;;;;37.25;25.55;;;6.00;96.80;;;;;;5048249;28;20045;-40
2020/12/12 04:54:33;;;;;;;36.40;24.92;;;6.10;96.80;;;;;;5048306;28;20017;-43
2020/12/12 04:57:02;;;;;;;36.22;24.60;;;6.10;96.80;;;;;;5048752;28;20100;-39
2020/12/12 04:59:30;;;;;;;36.85;24.40;;;6.10;96.80;;;;;;5047480;28;20036;-39
2020/12/12 05:02:00;;;;;;;36.28;25.30;;;6.00;96.80;;;;;;5048366;28;20040;-40
2020/12/12 05:04:26;;;;;;;33.95;23.73;;;6.10;96.80;;;;;;5047881;28;20484;-41
2020/12/12 05:06:52;;;;;;;35.78;23.63;;;6.10;96.80;;;;;;5048127;28;20108;-43
2020/12/12 05:09:18;;;;;;;37.40;23.95;;;6.10;96.80;;;;;;5047937;28;20029;-39
2020/12/12 05:11:45;;;;;;;41.50;26.77;;;6.10;96.80;;;;;;5048039;28;20123;-38
2020/12/12 05:14:13;;;;;;;38.63;26.08;;;6.10;96.80;;;;;;5047639;28;20480;-37
2020/12/12 05:16:39;;;;;;;39.45;25.25;;;6.10;97.10;;;;;;5048084;28;20026;-42
2020/12/12 05:19:05;;;;;;;40.90;26.05;;;6.10;96.90;;;;;;5048125;28;20052;-41
2020/12/12 05:21:31;;;;;;;36.08;23.75;;;6.10;96.80;;;;;;5048081;28;20103;-39
2020/12/12 05:23:59;;;;;;;34.20;22.85;;;6.10;96.80;;;;;;5048556;28;20041;-40
2020/12/12 05:26:24;;;;;;;38.25;24.23;;;6.10;96.80;;;;;;5046953;28;20021;-40
2020/12/12 05:28:50;;;;;;;37.10;25.20;;;6.10;96.80;;;;;;5047808;28;20029;-39
2020/12/12 05:31:17;;;;;;;40.78;25.83;;;6.10;96.80;;;;;;5047375;28;20033;-38
2020/12/12 05:33:43;;;;;;;36.13;23.25;;;6.10;96.80;;;;;;5047485;28;20383;-40
2020/12/12 05:36:11;;;;;;;32.53;22.10;;;6.10;96.80;;;;;;5047050;28;20032;-39
2020/12/12 05:38:36;;;;;;;36.03;23.63;;;6.10;96.90;;;;;;5047968;28;20021;-38
2020/12/12 05:41:02;;;;;;;35.58;22.67;;;6.20;96.90;;;;;;5047097;28;20051;-38
2020/12/12 05:43:35;;;;;;;32.30;21.83;;;6.10;96.80;;;;;;5047188;28;20466;-39
2020/12/12 05:46:01;;;;;;;37.33;23.45;;;6.20;96.90;;;;;;5047938;28;20060;-37
2020/12/12 05:48:27;;;;;;;31.27;20.90;;;6.20;96.90;;;;;;5046022;28;20674;-40
2020/12/12 05:50:53;;;;;;;31.13;20.70;;;6.20;96.90;;;;;;5047496;28;20029;-39
2020/12/12 05:53:19;;;;;;;33.10;20.73;;;6.20;96.90;;;;;;5047247;28;20072;-41
2020/12/12 05:55:45;;;;;;;31.60;22.83;;;6.20;96.90;;;;;;5047249;28;20751;-39
2020/12/12 05:58:12;;;;;;;34.65;22.90;;;6.20;96.80;;;;;;5046908;28;20029;-38
2020/12/12 06:00:39;;;;;;;32.72;22.15;;;6.20;96.80;;;;;;5047854;28;20107;-38
2020/12/12 06:03:07;;;;;;;30.42;19.73;;;6.20;96.80;;;;;;5046754;28;20476;-38
2020/12/12 06:05:33;;;;;;;33.22;19.50;;;6.30;96.90;;;;;;5047574;28;20106;-38
2020/12/12 06:08:03;;;;;;;29.27;19.15;;;6.20;96.80;;;;;;5047499;28;20029;-37
2020/12/12 06:10:33;;;;;;;28.85;18.13;;;6.20;96.80;;;;;;5046776;28;20025;-38
2020/12/12 06:13:05;;;;;;;26.50;17.75;;;6.30;96.80;;;;;;5047157;28;20028;-38
2020/12/12 06:15:36;;;;;;;27.02;18.20;;;6.30;96.80;;;;;;5047109;28;20032;-38
2020/12/12 06:18:44;;;;;;;27.58;19.27;;;6.30;96.90;;;;;;5047371;28;20100;-39
2020/12/12 06:21:10;;;;;;;27.20;18.73;;;6.30;96.80;;;;;;5046535;28;20025;-42
2020/12/12 06:23:40;;;;;;;32.05;19.27;;;6.30;96.80;;;;;;5046882;28;20120;-40
2020/12/12 06:26:07;;;;;;;25.77;17.05;;;6.30;96.80;;;;;;5047304;28;20052;-39
2020/12/12 06:28:41;;;;;;;26.23;17.85;;;6.30;96.80;;;;;;5047289;28;20100;-39
2020/12/12 06:31:09;;;;;;;27.42;19.15;;;6.30;96.80;;;;;;5046592;28;20029;-39
2020/12/12 06:33:52;;;;;;;23.85;16.63;;;6.30;96.80;;;;;;5047130;28;20033;-40
2020/12/12 06:36:32;;;;;;;32.25;18.65;;;6.30;96.80;;;;;;5046406;28;20115;-39
2020/12/12 06:39:16;;;;;;;23.73;16.80;;;6.40;96.80;;;;;;5047105;28;20029;-40
2020/12/12 06:41:43;;;;;;;22.45;15.57;;;6.40;96.80;;;;;;5047380;28;20032;-41
2020/12/12 06:44:08;;;;;;;21.55;15.18;;;6.40;96.80;;;;;;5046075;28;20686;-43
2020/12/12 06:46:53;;;;;;;25.35;16.45;;;6.40;96.80;;;;;;5047175;28;20029;-42
2020/12/12 06:49:21;;;;;;;25.20;16.33;;;6.40;96.80;;;;;;5046557;28;20112;-38
2020/12/12 06:51:47;;;;;;;29.85;18.58;;;6.40;96.80;;;;;;5046746;28;20052;-39
2020/12/12 06:54:13;;;;;;;23.27;17.13;;;6.40;96.80;;;;;;5046334;28;20107;-41
2020/12/12 06:56:38;;;;;;;25.52;17.95;;;6.40;96.80;;;;;;5047046;28;20033;-40
2020/12/12 06:59:26;;;;;;;21.15;14.98;;;6.40;96.80;;;;;;5046922;28;20017;-41
2020/12/12 07:02:15;;;;;;;21.77;15.32;;;6.40;96.80;;;;;;5051192;28;20112;-40
2020/12/12 07:04:42;;;;;;;26.42;17.00;;;6.40;96.80;;;;;;5050483;28;20049;-38
2020/12/12 07:07:10;;;;;;;21.42;15.63;;;6.50;96.80;;;;;;5050423;28;20120;-38
2020/12/12 07:09:40;;;;;;;21.73;15.68;;;6.50;96.80;;;;;;5051030;28;20052;-38
2020/12/12 07:12:06;;;;;;;19.10;13.73;;;6.40;96.80;;;;;;5050461;28;20143;-39
2020/12/12 07:14:32;;;;;;;17.17;13.65;;;6.50;96.80;;;;;;5050571;28;20021;-43
2020/12/12 07:16:59;;;;;;;19.55;13.55;;;6.50;96.80;;;;;;5051113;28;20040;-39
2020/12/12 07:19:32;;;;;;;18.35;13.07;;;6.50;97.10;;;;;;5049544;28;20479;-39
2020/12/12 07:21:59;;;;;;;21.83;14.10;;;6.60;96.90;;;;;;5051076;28;20031;-40
2020/12/12 07:24:25;;;;;;;20.63;13.35;;;6.60;96.80;;;;;;5050209;28;20040;-38
2020/12/12 07:26:52;;;;;;;24.60;13.75;;;6.60;96.80;;;;;;5050447;28;20391;-38
2020/12/12 07:29:18;;;;;;;19.65;13.55;;;6.60;96.80;;;;;;5050217;28;20053;-45
2020/12/12 07:31:44;;;;;;;17.38;13.02;;;6.60;96.80;;;;;;5050453;28;20558;-44
2020/12/12 07:34:09;;;;;;;20.30;13.25;;;6.60;96.80;;;;;;5049255;28;20112;-40
2020/12/12 07:36:35;;;;;;;25.60;13.70;;;6.60;96.80;;;;;;5050192;28;20025;-40
2020/12/12 07:39:11;;;;;;;19.08;13.38;;;6.60;96.80;;;;;;5050825;28;20025;-40
2020/12/12 07:41:45;;;;;;;22.15;14.52;;;6.60;96.80;;;;;;5049982;28;20032;-42
2020/12/12 07:44:11;;;;;;;22.50;13.25;;;6.60;96.70;;;;;;5049666;28;20524;-43
2020/12/12 07:46:38;;;;;;;24.45;14.98;;;6.70;96.80;;;;;;5049924;28;20029;-43
2020/12/12 07:49:05;;;;;;;23.48;14.25;;;6.70;96.80;;;;;;5050220;28;20086;-39
2020/12/12 07:51:30;;;;;;;24.45;14.18;;;6.70;96.80;;;;;;5049579;28;20041;-40
2020/12/12 07:53:56;;;;;;;27.85;15.55;;;6.70;96.70;;;;;;5050001;28;20035;-38
2020/12/12 07:56:23;;;;;;;23.70;15.70;;;6.70;96.70;;;;;;5049428;28;20376;-40
2020/12/12 07:58:58;;;;;;;28.15;16.85;;;6.70;96.70;;;;;;5050014;28;20132;-41
2020/12/12 08:01:24;;;;;;;33.28;16.88;;;6.70;96.70;;;;;;5049294;28;20032;-39
2020/12/12 08:03:50;;;;;;;30.23;16.42;;;6.70;96.70;;;;;;5049992;28;20021;-40
2020/12/12 08:06:16;;;;;;;23.05;15.20;;;6.70;96.70;;;;;;5049171;28;20021;-41
2020/12/12 08:08:51;;;;;;;31.15;17.33;;;6.70;96.70;;;;;;5049673;28;20017;-43
2020/12/12 08:11:17;;;;;;;37.20;17.23;;;6.70;96.70;;;;;;5047969;28;20043;-42
2020/12/12 08:13:43;;;;;;;32.50;18.48;;;6.70;96.70;;;;;;5049360;28;20035;-42
2020/12/12 08:16:44;;;;;;;33.90;18.35;;;6.70;96.70;;;;;;5048817;28;20017;-38
2020/12/12 08:19:05;;;;;;;38.70;20.10;;;6.70;96.80;;;;;;5046758;28;20028;-39
2020/12/12 08:21:30;;;;;;;37.63;19.58;;;6.70;96.80;;;;;;5049042;28;20037;-42
2020/12/12 08:23:57;;;;;;;42.92;21.27;;;6.70;96.70;;;;;;5049197;28;20094;-40
2020/12/12 08:26:23;;;;;;;46.78;22.55;;;6.70;96.80;;;;;;5049127;28;20025;-38
2020/12/12 08:28:49;;;;;;;35.75;21.13;;;6.80;96.80;;;;;;5049070;28;20029;-41
2020/12/12 08:31:21;;;;;;;40.53;19.77;;;6.80;96.80;;;;;;5048802;28;20151;-40
2020/12/12 08:33:53;;;;;;;37.20;19.98;;;6.80;96.80;;;;;;5049753;28;20028;-40
2020/12/12 08:36:24;;;;;;;40.97;18.83;;;6.80;96.80;;;;;;5048342;28;20025;-40
2020/12/12 08:38:57;;;;;;;40.35;19.13;;;6.80;96.80;;;;;;5049100;28;20115;-41
2020/12/12 08:41:29;;;;;;;50.38;20.98;;;6.80;96.80;;;;;;5048701;28;20040;-38
2020/12/12 08:43:55;;;;;;;52.05;21.55;;;6.80;96.80;;;;;;5048886;28;20029;-39
2020/12/12 08:46:21;;;;;;;50.10;22.52;;;6.90;96.80;;;;;;5048338;28;20029;-38
2020/12/12 08:48:46;;;;;;;42.50;21.73;;;6.90;96.80;;;;;;5048866;28;20456;-39
2020/12/12 08:51:12;;;;;;;46.15;21.55;;;6.90;96.80;;;;;;5045338;28;20056;-42
2020/12/12 08:53:42;;;;;;;44.00;21.48;;;6.90;96.90;;;;;;5047506;28;20087;-39
2020/12/12 08:56:15;;;;;;;40.30;19.67;;;6.90;96.80;;;;;;5047314;28;20029;-42
2020/12/12 08:58:59;;;;;;;51.10;20.30;;;6.90;96.90;;;;;;5047701;28;20558;-44
2020/12/12 09:01:28;;;;;;;52.55;19.90;;;7.00;96.90;;;;;;5047459;28;20044;-39
2020/12/12 09:03:56;;;;;;;39.03;20.20;;;6.90;96.80;;;;;;5047468;28;20029;-42
2020/12/12 09:06:24;;;;;;;45.85;20.30;;;7.00;96.90;;;;;;5046972;28;20048;-40
2020/12/12 09:09:22;;;;;;;47.80;21.27;;;7.00;96.80;;;;;;5048187;28;20483;-40
2020/12/12 09:11:54;;;;;;;46.67;23.20;;;7.00;96.80;;;;;;5047042;28;20036;-38
2020/12/12 09:14:20;;;;;;;46.95;22.48;;;7.00;96.80;;;;;;5047633;28;20032;-40
2020/12/12 09:16:47;;;;;;;56.83;23.15;;;7.00;96.80;;;;;;5047874;28;20070;-39
2020/12/12 09:19:12;;;;;;;49.15;22.08;;;7.00;96.80;;;;;;5046820;28;20021;-41
2020/12/12 09:21:38;;;;;;;47.75;19.52;;;7.00;96.80;;;;;;5047378;28;20025;-38
2020/12/12 09:24:03;;;;;;;51.10;20.00;;;7.10;96.90;;;;;;5047841;28;20032;-39
2020/12/12 09:26:29;;;;;;;47.38;21.60;;;7.10;96.90;;;;;;5046059;28;20056;-42
2020/12/12 09:28:55;;;;;;;46.45;21.25;;;7.10;96.90;;;;;;5047291;28;20439;-40
2020/12/12 09:31:22;;;;;;;44.15;20.73;;;7.10;96.90;;;;;;5046918;28;20504;-42
2020/12/12 09:33:47;;;;;;;52.20;20.58;;;7.10;96.90;;;;;;5047184;28;20044;-42
2020/12/12 09:36:13;;;;;;;40.65;20.38;;;7.10;96.90;;;;;;5046465;28;20025;-38
2020/12/12 09:38:39;;;;;;;55.90;21.10;;;7.10;96.90;;;;;;5047086;28;20021;-40
2020/12/12 09:41:04;;;;;;;37.75;19.25;;;7.20;96.90;;;;;;5046582;28;20079;-39
2020/12/12 09:43:30;;;;;;;46.65;19.05;;;7.20;96.80;;;;;;5047187;28;20040;-39
2020/12/12 09:45:56;;;;;;;50.22;20.60;;;7.20;96.80;;;;;;5046861;28;20074;-39
2020/12/12 09:48:22;;;;;;;38.00;18.52;;;7.20;96.90;;;;;;5046906;28;20112;-38
2020/12/12 09:50:47;;;;;;;47.70;18.63;;;7.30;96.90;;;;;;5046434;28;20029;-41
2020/12/12 09:53:13;;;;;;;50.40;18.77;;;7.30;96.90;;;;;;5037947;28;20049;-40
2020/12/12 09:55:41;;;;;;;51.05;20.83;;;7.30;96.90;;;;;;5043517;28;20028;-40
2020/12/12 09:58:07;;;;;;;50.85;21.88;;;7.30;96.90;;;;;;5047493;28;20392;-41
2020/12/12 10:00:34;;;;;;;62.25;21.98;;;7.30;96.80;;;;;;5046864;28;20021;-40
2020/12/12 10:03:00;;;;;;;48.05;21.15;;;7.40;96.80;;;;;;5047838;28;20025;-39
2020/12/12 10:05:25;;;;;;;44.22;20.90;;;7.30;96.80;;;;;;5046797;28;20028;-39
2020/12/12 10:07:54;;;;;;;53.10;22.88;;;7.40;96.80;;;;;;5046802;28;20028;-42
2020/12/12 10:10:20;;;;;;;51.28;21.80;;;7.40;96.80;;;;;;5046968;28;20392;-40
2020/12/12 10:12:46;;;;;;;47.10;21.02;;;7.40;96.80;;;;;;5047443;28;20037;-38
2020/12/12 10:15:11;;;;;;;51.97;21.15;;;7.50;97.10;;;;;;5046378;28;20078;-42
2020/12/12 10:17:39;;;;;;;48.67;20.90;;;7.50;96.80;;;;;;5047623;28;20384;-40
2020/12/12 10:20:04;;;;;;;43.78;20.10;;;7.50;96.80;;;;;;5054953;28;20021;-40
2020/12/12 10:22:30;;;;;;;42.38;19.10;;;7.50;96.80;;;;;;5055028;28;20023;-38
2020/12/12 10:24:55;;;;;;;41.88;18.35;;;7.60;96.80;;;;;;5054500;28;20087;-39
2020/12/12 10:27:21;;;;;;;42.80;19.83;;;7.60;96.80;;;;;;5050582;28;20055;-34
2020/12/12 10:29:46;;;;;;;43.53;20.05;;;7.60;96.70;;;;;;5047081;28;20070;-33
2020/12/12 10:32:12;;;;;;;44.60;17.67;;;7.60;96.70;;;;;;5046331;28;20036;-32
2020/12/12 10:34:37;;;;;;;40.35;19.48;;;7.70;96.80;;;;;;5046530;28;20036;-43
2020/12/12 10:37:03;;;;;;;47.70;18.20;;;7.70;96.80;;;;;;5047046;28;20033;-44
2020/12/12 10:39:31;;;;;;;35.33;16.55;;;7.70;96.70;;;;;;5046192;28;20029;-43
2020/12/12 10:42:00;;;;;;;36.22;17.83;;;7.80;96.70;;;;;;5046804;28;20028;-43
2020/12/12 10:44:26;;;;;;;43.13;16.88;;;7.80;96.70;;;;;;5045987;28;20025;-43
2020/12/12 10:46:51;;;;;;;41.75;18.55;;;7.80;96.70;;;;;;5047352;28;20472;-43
2020/12/12 10:49:17;;;;;;;43.40;19.23;;;7.80;97.00;;;;;;5048294;28;20033;-43
2020/12/12 10:51:52;;;;;;;40.72;17.17;;;7.90;96.70;;;;;;5046643;28;20056;-42
2020/12/12 10:54:18;;;;;;;37.55;17.65;;;7.90;96.70;;;;;;5046742;28;20470;-43
2020/12/12 10:56:45;;;;;;;32.28;16.50;;;7.90;96.70;;;;;;5045999;28;20112;-43
2020/12/12 10:59:11;;;;;;;44.05;18.85;;;7.90;96.70;;;;;;5048908;28;20024;-43
2020/12/12 11:01:37;;;;;;;41.58;18.10;;;7.90;96.70;;;;;;5054980;28;20423;-43
2020/12/12 11:04:04;;;;;;;42.97;19.33;;;7.90;96.70;;;;;;5054062;28;20480;-42
2020/12/12 11:06:30;;;;;;;42.55;19.60;;;8.00;96.60;;;;;;5056243;28;20040;-43
2020/12/12 11:08:56;;;;;;;43.17;19.38;;;7.90;96.60;;;;;;5055409;28;20025;-42
2020/12/12 11:11:21;;;;;;;41.13;20.15;;;8.00;96.60;;;;;;5065079;28;20427;-43
2020/12/12 11:13:47;;;;;;;48.25;20.50;;;8.00;96.60;;;;;;5066849;28;20418;-42
2020/12/12 11:16:21;;;;;;;51.95;22.15;;;8.00;96.60;;;;;;5066417;28;20089;-43
2020/12/12 11:18:49;;;;;;;42.72;20.92;;;8.00;96.60;;;;;;5066415;28;20017;-43
2020/12/12 11:21:22;;;;;;;55.35;20.27;;;8.00;96.60;;;;;;5066299;28;20111;-42
2020/12/12 11:23:48;;;;;;;50.38;19.88;;;8.00;96.60;;;;;;5066698;28;20033;-43
2020/12/12 11:26:14;;;;;;;51.15;21.05;;;8.10;96.60;;;;;;5065359;28;20047;-43
2020/12/12 11:28:40;;;;;;;54.17;21.60;;;8.10;96.60;;;;;;5066719;28;20135;-43
2020/12/12 11:31:06;;;;;;;50.75;21.13;;;8.10;96.50;;;;;;5066627;28;20033;-43
2020/12/12 11:33:34;;;;;;;56.70;21.00;;;8.10;96.60;;;;;;5066026;28;20102;-43
2020/12/12 11:38:47;;;;;;;56.95;22.00;;;8.20;96.60;;;;;;5066555;28;20640;-42
2020/12/12 11:41:33;;;;;;;59.30;22.63;;;8.20;96.60;;;;;;5065639;28;20029;-43
2020/12/12 11:46:37;;;;;;;54.00;21.45;;;8.30;96.60;;;;;;5067902;28;20036;-43
2020/12/12 11:49:04;;;;;;;51.65;21.20;;;8.30;96.50;;;;;;5070343;28;20032;-43
2020/12/12 11:51:33;;;;;;;47.30;20.58;;;8.30;96.50;;;;;;5069406;28;20052;-44
2020/12/12 11:53:59;;;;;;;53.15;22.30;;;8.30;96.50;;;;;;5069384;28;20024;-43
2020/12/12 11:56:25;;;;;;;50.95;21.67;;;8.40;96.50;;;;;;5066871;28;20406;-43
2020/12/12 11:58:51;;;;;;;51.83;19.67;;;8.40;96.50;;;;;;5070041;28;20043;-43
2020/12/12 12:01:24;;;;;;;53.22;19.95;;;8.40;96.50;;;;;;5069534;28;20024;-43
2020/12/12 12:03:53;;;;;;;46.20;18.98;;;8.40;96.50;;;;;;5070083;28;20027;-43
2020/12/12 12:06:20;;;;;;;46.83;19.42;;;8.40;96.50;;;;;;5069354;28;20033;-43
2020/12/12 12:08:58;;;;;;;41.47;19.95;;;8.50;96.50;;;;;;5069123;28;20387;-44
2020/12/12 12:11:31;;;;;;;46.28;19.77;;;8.50;96.50;;;;;;5069291;28;20834;-43
2020/12/12 12:13:58;;;;;;;55.10;19.50;;;8.50;96.50;;;;;;5069706;28;20625;-43
2020/12/12 12:16:24;;;;;;;51.90;18.50;;;8.40;96.50;;;;;;5068915;28;20040;-43
2020/12/12 12:18:50;;;;;;;47.38;18.85;;;8.50;96.50;;;;;;5069664;28;20590;-44
2020/12/12 12:21:16;;;;;;;40.83;18.58;;;8.50;96.60;;;;;;5068389;28;20028;-43
2020/12/12 12:23:42;;;;;;;42.63;17.98;;;8.50;96.60;;;;;;5069240;28;20496;-45
2020/12/12 12:26:07;;;;;;;50.72;17.27;;;8.60;96.60;;;;;;5069075;28;20032;-42
2020/12/12 12:28:33;;;;;;;44.05;18.20;;;8.60;96.60;;;;;;5069079;28;20028;-43
2020/12/12 12:30:59;;;;;;;42.20;18.75;;;8.60;96.60;;;;;;5069545;28;20024;-43
2020/12/12 12:33:25;;;;;;;40.78;17.65;;;8.60;96.60;;;;;;5068759;28;20395;-43
2020/12/12 12:35:50;;;;;;;41.00;16.88;;;8.60;96.60;;;;;;5069301;28;20525;-43
2020/12/12 12:38:16;;;;;;;37.58;16.65;;;8.60;96.60;;;;;;5068365;28;20033;-43
2020/12/12 12:40:42;;;;;;;47.05;17.98;;;8.60;96.60;;;;;;5054889;28;20488;-43
2020/12/12 12:43:08;;;;;;;40.58;16.50;;;8.60;96.60;;;;;;5058271;28;20035;-43